createdAt,value
2017-11-27T00:01:17.239Z,3.43
2017-11-27T00:03:43.623Z,3.13
2017-11-27T00:06:09.948Z,3.90
2017-11-27T00:08:36.246Z,2.93
2017-11-27T00:11:02.570Z,3.00
2017-11-27T00:13:28.967Z,4.93
2017-11-27T00:15:56.015Z,5.13
2017-11-27T00:18:23.086Z,6.17
2017-11-27T00:20:49.494Z,4.13
2017-11-27T00:23:15.785Z,6.30
2017-11-27T00:25:42.122Z,6.40
2017-11-27T00:28:08.448Z,5.03
2017-11-27T00:30:34.810Z,5.63
2017-11-27T00:33:01.138Z,4.90
2017-11-27T00:35:27.541Z,4.37
2017-11-27T00:37:53.840Z,8.40
2017-11-27T00:40:20.155Z,7.57
2017-11-27T00:42:46.447Z,5.30
2017-11-27T00:45:12.765Z,3.10
2017-11-27T00:47:39.064Z,4.70
2017-11-27T00:50:05.420Z,5.87
2017-11-27T00:52:31.690Z,5.20
2017-11-27T00:54:58.041Z,3.87
2017-11-27T00:57:25.107Z,3.23
2017-11-27T00:59:51.454Z,4.43
2017-11-27T01:02:17.897Z,3.57
2017-11-27T01:04:44.327Z,5.00
2017-11-27T01:07:10.636Z,2.93
2017-11-27T01:09:36.909Z,6.60
2017-11-27T01:12:03.216Z,9.57
2017-11-27T01:14:29.485Z,9.20
2017-11-27T01:16:55.824Z,4.73
2017-11-27T01:19:22.136Z,7.50
2017-11-27T01:21:48.479Z,9.20
2017-11-27T01:24:14.822Z,4.30
2017-11-27T01:26:41.131Z,5.17
2017-11-27T01:29:07.463Z,6.50
2017-11-27T01:31:33.759Z,3.93
2017-11-27T01:34:00.075Z,7.43
2017-11-27T01:36:26.373Z,4.77
2017-11-27T01:38:52.742Z,6.50
2017-11-27T01:41:19.067Z,9.23
2017-11-27T01:43:45.350Z,6.33
2017-11-27T01:46:11.676Z,5.10
2017-11-27T01:48:38.091Z,6.20
2017-11-27T01:51:04.392Z,4.87
2017-11-27T01:53:30.807Z,6.20
2017-11-27T01:55:57.900Z,4.63
2017-11-27T01:58:24.202Z,4.33
2017-11-27T02:00:50.562Z,15.10
2017-11-27T02:03:16.922Z,3.53
2017-11-27T02:05:43.258Z,4.50
2017-11-27T02:08:10.375Z,4.83
2017-11-27T02:10:36.739Z,4.00
2017-11-27T02:13:03.032Z,3.50
2017-11-27T02:15:29.327Z,4.40
2017-11-27T02:17:56.397Z,7.67
2017-11-27T02:20:22.752Z,4.80
2017-11-27T02:22:49.111Z,5.90
2017-11-27T02:25:15.473Z,4.27
2017-11-27T02:27:42.541Z,5.57
2017-11-27T02:30:08.963Z,4.30
2017-11-27T02:32:35.283Z,3.63
2017-11-27T02:35:03.325Z,3.27
2017-11-27T02:37:29.702Z,4.37
2017-11-27T02:39:56.010Z,12.10
2017-11-27T02:42:22.312Z,5.30
2017-11-27T02:44:48.611Z,6.03
2017-11-27T02:47:14.902Z,11.13
2017-11-27T02:49:41.959Z,4.43
2017-11-27T02:52:09.103Z,3.90
2017-11-27T02:54:36.189Z,7.30
2017-11-27T02:57:02.515Z,7.67
2017-11-27T02:59:28.846Z,3.77
2017-11-27T03:01:55.161Z,3.83
2017-11-27T03:04:21.474Z,7.00
2017-11-27T03:06:48.523Z,3.70
2017-11-27T03:09:15.606Z,3.77
2017-11-27T03:11:42.916Z,4.53
2017-11-27T03:14:09.189Z,8.50
2017-11-27T03:16:35.490Z,6.57
2017-11-27T03:19:02.638Z,5.90
2017-11-27T03:21:29.802Z,6.37
2017-11-27T03:23:56.886Z,6.23
2017-11-27T03:26:23.245Z,6.40
2017-11-27T03:28:49.540Z,6.60
2017-11-27T03:31:15.888Z,3.93
2017-11-27T03:33:42.216Z,7.37
2017-11-27T03:36:08.538Z,6.83
2017-11-27T03:38:34.919Z,7.13
2017-11-27T03:41:01.216Z,4.43
2017-11-27T03:43:27.547Z,8.23
2017-11-27T03:45:53.917Z,5.23
2017-11-27T03:48:20.974Z,6.40
2017-11-27T03:50:48.058Z,4.70
2017-11-27T03:53:14.447Z,4.10
2017-11-27T03:55:41.489Z,6.37
2017-11-27T03:58:07.818Z,5.30
2017-11-27T04:00:34.160Z,3.63
2017-11-27T04:03:01.241Z,3.00
2017-11-27T04:05:27.538Z,4.90
2017-11-27T04:07:54.619Z,12.63
2017-11-27T04:10:21.000Z,6.30
2017-11-27T04:12:47.285Z,4.30
2017-11-27T04:15:13.670Z,2.70
2017-11-27T04:17:40.718Z,5.30
2017-11-27T04:20:07.098Z,9.13
2017-11-27T04:22:33.431Z,7.70
2017-11-27T04:24:59.784Z,4.00
2017-11-27T04:27:26.114Z,3.57
2017-11-27T04:29:52.438Z,6.53
2017-11-27T04:32:18.869Z,7.07
2017-11-27T04:34:45.158Z,4.17
2017-11-27T04:37:11.468Z,5.70
2017-11-27T04:39:37.851Z,12.70
2017-11-27T04:42:04.230Z,10.30
2017-11-27T04:44:30.657Z,8.43
2017-11-27T04:46:56.997Z,5.73
2017-11-27T04:49:24.178Z,7.93
2017-11-27T04:51:50.535Z,6.30
2017-11-27T04:54:16.911Z,4.63
2017-11-27T04:56:43.984Z,4.90
2017-11-27T04:59:10.288Z,6.07
2017-11-27T05:01:36.619Z,5.10
2017-11-27T05:04:02.979Z,6.90
2017-11-27T05:06:29.301Z,12.10
2017-11-27T05:08:56.354Z,8.80
2017-11-27T05:11:23.414Z,7.77
2017-11-27T05:13:54.701Z,6.20
2017-11-27T05:16:21.003Z,10.20
2017-11-27T05:18:47.319Z,12.03
2017-11-27T05:21:13.743Z,5.90
2017-11-27T05:23:40.759Z,4.67
2017-11-27T05:26:07.096Z,8.90
2017-11-27T05:28:33.443Z,9.60
2017-11-27T05:30:59.764Z,7.40
2017-11-27T05:33:26.804Z,7.50
2017-11-27T05:35:53.117Z,4.37
2017-11-27T05:38:19.384Z,4.50
2017-11-27T05:40:45.669Z,6.67
2017-11-27T05:43:11.997Z,5.60
2017-11-27T05:45:38.346Z,6.60
2017-11-27T05:48:04.659Z,6.37
2017-11-27T05:50:30.996Z,4.90
2017-11-27T05:52:57.253Z,4.00
2017-11-27T05:55:23.650Z,5.13
2017-11-27T05:57:49.897Z,3.90
2017-11-27T06:00:16.230Z,9.40
2017-11-27T06:02:42.544Z,8.83
2017-11-27T06:05:08.840Z,4.93
2017-11-27T06:07:35.178Z,6.33
2017-11-27T06:10:01.528Z,5.03
2017-11-27T06:12:27.833Z,4.33
2017-11-27T06:14:54.867Z,4.07
2017-11-27T06:17:21.240Z,8.93
2017-11-27T06:19:47.532Z,12.33
2017-11-27T06:22:14.587Z,6.30
2017-11-27T06:24:40.883Z,9.60
2017-11-27T06:27:07.202Z,7.10
2017-11-27T06:29:33.580Z,7.33
2017-11-27T06:32:00.617Z,8.43
2017-11-27T06:34:27.749Z,5.90
2017-11-27T06:36:54.087Z,4.10
2017-11-27T06:39:20.426Z,3.83
2017-11-27T06:41:47.824Z,3.67
2017-11-27T06:44:14.093Z,7.43
2017-11-27T06:46:48.450Z,6.20
2017-11-27T06:49:14.783Z,4.73
2017-11-27T06:51:41.799Z,5.13
2017-11-27T06:54:08.153Z,7.33
2017-11-27T06:56:35.187Z,6.97
2017-11-27T06:59:01.536Z,7.10
2017-11-27T07:01:27.843Z,5.10
2017-11-27T07:03:54.283Z,6.33
2017-11-27T07:06:21.409Z,4.30
2017-11-27T07:08:47.859Z,5.10
2017-11-27T07:11:14.188Z,9.33
2017-11-27T07:13:40.501Z,4.60
2017-11-27T07:16:06.825Z,9.50
2017-11-27T07:18:33.162Z,6.83
2017-11-27T07:20:59.438Z,5.17
2017-11-27T07:23:27.754Z,4.60
2017-11-27T07:25:54.080Z,3.10
2017-11-27T07:28:20.383Z,7.27
2017-11-27T07:30:46.764Z,5.00
2017-11-27T07:33:13.099Z,3.07
2017-11-27T07:35:39.417Z,5.20
2017-11-27T07:41:15.037Z,6.20
2017-11-27T07:43:42.142Z,7.83
2017-11-27T07:46:08.494Z,11.53
2017-11-27T07:48:35.010Z,12.97
2017-11-27T07:51:01.494Z,3.00
2017-11-27T07:53:27.916Z,3.87
2017-11-27T07:55:54.249Z,4.13
2017-11-27T07:58:21.351Z,7.17
2017-11-27T08:00:47.746Z,7.97
2017-11-27T08:03:14.909Z,4.47
2017-11-27T08:05:41.181Z,6.93
2017-11-27T08:08:07.501Z,2.20
2017-11-27T08:10:33.832Z,6.17
2017-11-27T08:13:00.092Z,2.23
2017-11-27T08:15:26.420Z,2.63
2017-11-27T08:17:52.725Z,5.00
2017-11-27T08:20:19.050Z,2.80
2017-11-27T08:22:46.061Z,4.60
2017-11-27T08:25:13.233Z,8.70
2017-11-27T08:27:39.516Z,6.43
2017-11-27T08:30:06.592Z,2.47
2017-11-27T08:32:32.883Z,2.43
2017-11-27T08:34:59.271Z,6.33
2017-11-27T08:37:25.584Z,3.83
2017-11-27T08:39:52.662Z,2.93
2017-11-27T08:42:18.911Z,4.20
2017-11-27T08:44:45.231Z,4.20
2017-11-27T08:47:11.527Z,4.10
2017-11-27T08:49:37.806Z,2.20
2017-11-27T08:52:04.146Z,3.50
2017-11-27T08:54:31.190Z,2.47
2017-11-27T08:56:57.804Z,3.63
2017-11-27T08:59:24.095Z,2.50
2017-11-27T09:01:51.190Z,2.90
2017-11-27T09:04:18.290Z,3.50
2017-11-27T09:06:45.362Z,2.10
2017-11-27T09:09:11.645Z,4.23
2017-11-27T09:11:37.962Z,2.30
2017-11-27T09:14:04.290Z,4.97
2017-11-27T09:16:30.686Z,7.93
2017-11-27T09:18:57.048Z,2.00
2017-11-27T09:21:23.666Z,5.33
2017-11-27T09:23:49.963Z,3.47
2017-11-27T09:26:16.308Z,2.10
2017-11-27T09:28:42.581Z,3.83
2017-11-27T09:31:08.849Z,1.73
2017-11-27T09:33:35.945Z,3.43
2017-11-27T09:36:02.332Z,4.23
2017-11-27T09:38:29.369Z,3.33
2017-11-27T09:40:55.697Z,3.20
2017-11-27T09:43:22.723Z,1.50
2017-11-27T09:45:49.017Z,1.37
2017-11-27T09:48:15.357Z,2.87
2017-11-27T09:50:41.642Z,2.20
2017-11-27T09:53:08.728Z,2.27
2017-11-27T09:55:35.085Z,3.83
2017-11-27T09:58:01.374Z,7.70
2017-11-27T10:00:27.710Z,1.93
2017-11-27T10:02:54.049Z,3.00
2017-11-27T10:05:20.379Z,8.67
2017-11-27T10:07:46.678Z,2.80
2017-11-27T10:10:13.700Z,4.40
2017-11-27T10:12:40.080Z,4.17
2017-11-27T10:15:06.423Z,3.00
2017-11-27T10:17:32.821Z,5.03
2017-11-27T10:19:59.170Z,1.10
2017-11-27T10:22:26.305Z,1.30
2017-11-27T10:24:52.631Z,1.73
2017-11-27T10:27:18.892Z,3.70
2017-11-27T10:29:45.267Z,4.37
2017-11-27T10:32:11.588Z,4.13
2017-11-27T10:34:37.895Z,2.20
2017-11-27T10:37:04.198Z,1.50
2017-11-27T10:39:31.236Z,3.43
2017-11-27T10:41:58.273Z,1.30
2017-11-27T10:44:24.610Z,4.73
2017-11-27T10:46:50.944Z,4.60
2017-11-27T10:49:17.346Z,3.20
2017-11-27T10:51:43.698Z,2.60
2017-11-27T10:54:10.042Z,1.77
2017-11-27T10:56:36.453Z,1.00
2017-11-27T10:59:03.581Z,1.20
2017-11-27T11:01:29.919Z,1.63
2017-11-27T11:03:56.250Z,5.50
2017-11-27T11:06:22.569Z,2.33
2017-11-27T11:08:48.886Z,0.90
2017-11-27T11:11:15.254Z,2.23
2017-11-27T11:13:41.572Z,3.83
2017-11-27T11:16:07.910Z,1.50
2017-11-27T11:18:34.255Z,3.13
2017-11-27T11:21:00.738Z,1.87
2017-11-27T11:23:27.058Z,2.50
2017-11-27T11:25:53.407Z,2.50
2017-11-27T11:28:19.744Z,1.73
2017-11-27T11:30:46.133Z,2.27
2017-11-27T11:33:12.479Z,1.07
2017-11-27T11:35:39.672Z,1.60
2017-11-27T11:38:06.076Z,2.17
2017-11-27T11:40:32.547Z,2.70
2017-11-27T11:42:58.943Z,4.70
2017-11-27T11:45:25.269Z,3.03
2017-11-27T11:47:51.662Z,4.23
2017-11-27T11:50:18.764Z,7.43
2017-11-27T11:52:45.117Z,6.03
2017-11-27T11:55:11.402Z,3.17
2017-11-27T11:57:38.408Z,4.03
2017-11-27T12:00:04.705Z,1.33
2017-11-27T12:02:31.030Z,0.80
2017-11-27T12:04:57.349Z,3.27
2017-11-27T12:07:23.694Z,2.50
2017-11-27T12:09:50.020Z,4.30
2017-11-27T12:12:17.124Z,1.27
2017-11-27T12:14:44.164Z,7.47
2017-11-27T12:17:10.492Z,3.50
2017-11-27T12:19:36.879Z,2.80
2017-11-27T12:22:03.919Z,2.20
2017-11-27T12:24:31.133Z,1.20
2017-11-27T12:26:57.454Z,1.77
2017-11-27T12:29:23.785Z,2.40
2017-11-27T12:31:50.121Z,3.03
2017-11-27T12:34:17.197Z,2.03
2017-11-27T12:36:43.571Z,2.37
2017-11-27T12:39:09.946Z,2.27
2017-11-27T12:41:36.253Z,3.17
2017-11-27T12:44:02.522Z,2.03
2017-11-27T12:46:29.676Z,1.00
2017-11-27T12:48:56.119Z,3.90
2017-11-27T12:51:23.172Z,5.53
2017-11-27T12:53:50.245Z,1.20
2017-11-27T12:56:16.541Z,2.80
2017-11-27T12:58:43.590Z,4.10
2017-11-27T13:01:10.761Z,1.30
2017-11-27T13:03:37.027Z,3.00
2017-11-27T13:06:03.407Z,5.33
2017-11-27T13:08:30.454Z,2.67
2017-11-27T13:10:57.489Z,1.00
2017-11-27T13:13:23.787Z,1.43
2017-11-27T13:15:50.083Z,1.50
2017-11-27T13:18:16.385Z,2.93
2017-11-27T13:20:42.737Z,1.23
2017-11-27T13:23:09.117Z,1.47
2017-11-27T13:25:35.442Z,1.73
2017-11-27T13:28:01.754Z,1.57
2017-11-27T13:30:28.048Z,3.27
2017-11-27T13:32:54.369Z,3.30
2017-11-27T13:35:20.690Z,1.50
2017-11-27T13:37:46.958Z,1.77
2017-11-27T13:40:14.017Z,2.70
2017-11-27T13:42:40.322Z,1.63
2017-11-27T13:45:07.421Z,1.20
2017-11-27T13:47:33.686Z,0.77
2017-11-27T13:49:59.990Z,1.13
2017-11-27T13:52:26.346Z,1.73
2017-11-27T13:54:52.635Z,2.03
2017-11-27T13:57:19.004Z,2.30
2017-11-27T13:59:45.255Z,1.00
2017-11-27T14:02:12.316Z,3.10
2017-11-27T14:04:38.635Z,2.03
2017-11-27T14:07:05.685Z,2.80
2017-11-27T14:09:32.719Z,5.33
2017-11-27T14:11:59.091Z,0.97
2017-11-27T14:14:25.409Z,0.83
2017-11-27T14:16:51.723Z,2.20
2017-11-27T14:19:18.765Z,4.13
2017-11-27T14:21:45.809Z,2.80
2017-11-27T14:24:12.066Z,1.43
2017-11-27T14:26:38.371Z,2.20
2017-11-27T14:29:04.661Z,2.10
2017-11-27T14:31:31.009Z,1.43
2017-11-27T14:33:57.278Z,1.60
2017-11-27T14:36:24.308Z,3.60
2017-11-27T14:38:50.599Z,2.37
2017-11-27T14:41:16.888Z,1.70
2017-11-27T14:43:43.217Z,3.53
2017-11-27T14:46:10.246Z,2.20
2017-11-27T14:48:36.589Z,1.63
2017-11-27T14:51:03.622Z,3.70
2017-11-27T14:53:29.979Z,3.20
2017-11-27T14:55:57.042Z,1.90
2017-11-27T14:58:23.371Z,5.30
2017-11-27T15:00:49.772Z,1.60
2017-11-27T15:03:16.913Z,8.00
2017-11-27T15:05:43.270Z,1.70
2017-11-27T15:08:10.355Z,1.83
2017-11-27T15:10:36.718Z,3.47
2017-11-27T15:13:03.063Z,3.37
2017-11-27T15:15:29.373Z,4.90
2017-11-27T15:17:55.839Z,1.07
2017-11-27T15:20:22.280Z,2.33
2017-11-27T15:22:49.435Z,2.73
2017-11-27T15:25:16.499Z,2.90
2017-11-27T15:27:42.817Z,3.37
2017-11-27T15:30:09.949Z,2.00
2017-11-27T15:32:36.358Z,2.30
2017-11-27T15:35:16.888Z,1.93
2017-11-27T15:37:43.252Z,2.80
2017-11-27T15:40:09.610Z,2.97
2017-11-27T15:42:36.079Z,0.93
2017-11-27T15:45:02.485Z,2.03
2017-11-27T15:47:28.835Z,1.63
2017-11-27T15:49:55.247Z,2.93
2017-11-27T15:52:22.414Z,2.83
2017-11-27T15:54:48.761Z,1.10
2017-11-27T15:57:15.098Z,5.63
2017-11-27T15:59:41.459Z,1.63
2017-11-27T16:02:07.783Z,2.10
2017-11-27T16:04:34.187Z,4.80
2017-11-27T16:07:00.658Z,2.47
2017-11-27T16:09:26.992Z,2.87
2017-11-27T16:11:53.385Z,1.10
2017-11-27T16:14:19.783Z,5.27
2017-11-27T16:16:46.179Z,1.87
2017-11-27T16:19:12.470Z,4.83
2017-11-27T16:21:38.752Z,1.23
2017-11-27T16:24:05.554Z,3.80
2017-11-27T16:26:31.909Z,1.37
2017-11-27T16:28:58.284Z,3.60
2017-11-27T16:31:24.752Z,5.47
2017-11-27T16:33:51.084Z,2.83
2017-11-27T16:36:17.395Z,1.10
2017-11-27T16:38:44.447Z,1.20
2017-11-27T16:41:10.754Z,2.43
2017-11-27T16:43:37.071Z,2.53
2017-11-27T16:46:03.372Z,1.47
2017-11-27T16:48:29.819Z,2.80
2017-11-27T16:51:18.300Z,2.43
2017-11-27T16:53:44.702Z,1.87
2017-11-27T16:56:11.068Z,2.33
2017-11-27T16:58:37.450Z,1.10
2017-11-27T17:01:03.812Z,5.67
2017-11-27T17:03:30.120Z,1.43
2017-11-27T17:05:56.516Z,2.30
2017-11-27T17:08:23.933Z,4.20
2017-11-27T17:10:50.403Z,1.47
2017-11-27T17:13:16.975Z,1.73
2017-11-27T17:15:43.477Z,2.30
2017-11-27T17:18:10.147Z,1.63
2017-11-27T17:20:37.001Z,3.20
2017-11-27T17:23:03.353Z,2.40
2017-11-27T17:25:29.809Z,2.17
2017-11-27T17:27:56.963Z,1.47
2017-11-27T17:30:24.515Z,2.23
2017-11-27T17:32:50.990Z,6.53
2017-11-27T17:35:17.564Z,8.73
2017-11-27T17:37:44.251Z,3.10
2017-11-27T17:40:10.666Z,1.20
2017-11-27T17:42:38.258Z,5.77
2017-11-27T17:45:04.716Z,6.33
2017-11-27T17:47:31.212Z,2.87
2017-11-27T17:49:58.367Z,6.20
2017-11-27T17:52:25.442Z,5.57
2017-11-27T17:54:51.765Z,7.73
2017-11-27T17:57:18.048Z,2.37
2017-11-27T17:59:44.499Z,5.33
2017-11-27T18:02:11.583Z,2.40
2017-11-27T18:04:37.912Z,2.50
2017-11-27T18:07:04.546Z,2.53
2017-11-27T18:09:30.911Z,2.90
2017-11-27T18:11:57.422Z,2.53
2017-11-27T18:14:23.809Z,2.17
2017-11-27T18:16:52.191Z,1.77
2017-11-27T18:19:20.418Z,1.90
2017-11-27T18:21:47.279Z,2.17
2017-11-27T18:24:13.732Z,3.43
2017-11-27T18:26:40.872Z,1.63
2017-11-27T18:29:07.356Z,1.20
2017-11-27T18:31:33.768Z,1.00
2017-11-27T18:34:00.898Z,1.33
2017-11-27T18:36:27.276Z,1.07
2017-11-27T18:38:53.625Z,1.20
2017-11-27T18:41:19.942Z,0.90
2017-11-27T18:43:46.311Z,1.70
2017-11-27T18:46:12.697Z,2.10
2017-11-27T18:48:39.131Z,0.80
2017-11-27T18:51:05.501Z,1.00
2017-11-27T18:53:31.843Z,0.93
2017-11-27T18:55:58.261Z,0.70
2017-11-27T18:58:24.587Z,1.10
2017-11-27T19:00:50.958Z,1.33
2017-11-27T19:03:17.282Z,1.60
2017-11-27T19:05:43.629Z,1.13
2017-11-27T19:08:10.121Z,1.83
2017-11-27T19:10:36.576Z,1.57
2017-11-27T19:13:02.978Z,1.00
2017-11-27T19:15:36.884Z,2.53
2017-11-27T19:18:03.616Z,1.60
2017-11-27T19:20:31.597Z,1.20
2017-11-27T19:23:00.460Z,1.00
2017-11-27T19:25:27.822Z,3.73
2017-11-27T19:27:54.750Z,3.10
2017-11-27T19:30:22.370Z,1.43
2017-11-27T19:32:51.826Z,1.00
2017-11-27T19:35:18.232Z,1.37
2017-11-27T19:37:45.346Z,0.90
2017-11-27T19:40:11.923Z,0.80
2017-11-27T19:42:39.070Z,0.80
2017-11-27T19:45:06.651Z,0.87
2017-11-27T19:47:33.367Z,1.27
2017-11-27T19:50:01.170Z,1.23
2017-11-27T19:52:28.635Z,1.90
2017-11-27T19:54:55.331Z,0.80
2017-11-27T19:57:21.997Z,2.60
2017-11-27T19:59:48.716Z,1.60
2017-11-27T20:02:15.213Z,1.20
2017-11-27T20:04:41.808Z,1.30
2017-11-27T20:07:09.245Z,1.33
2017-11-27T20:09:39.089Z,0.90
2017-11-27T20:12:05.614Z,2.47
2017-11-27T20:14:32.103Z,3.47
2017-11-27T20:16:59.080Z,2.00
2017-11-27T20:19:26.470Z,2.00
2017-11-27T20:21:56.487Z,2.90
2017-11-27T20:24:23.302Z,1.10
2017-11-27T20:26:49.967Z,0.60
2017-11-27T20:29:16.563Z,0.60
2017-11-27T20:31:43.355Z,1.03
2017-11-27T20:34:10.006Z,0.73
2017-11-27T20:36:37.711Z,1.53
2017-11-27T20:39:04.271Z,0.80
2017-11-27T20:41:32.116Z,2.53
2017-11-27T20:43:59.271Z,1.13
2017-11-27T20:46:26.766Z,0.77
2017-11-27T20:48:53.281Z,0.80
2017-11-27T20:51:20.729Z,0.53
2017-11-27T20:53:48.049Z,0.97
2017-11-27T20:56:14.969Z,0.90
2017-11-27T20:58:44.020Z,0.60
2017-11-27T21:01:11.198Z,0.70
2017-11-27T21:03:37.919Z,0.67
2017-11-27T21:06:05.168Z,1.03
2017-11-27T21:08:32.417Z,1.50
2017-11-27T21:11:00.797Z,0.60
2017-11-27T21:13:29.868Z,0.60
2017-11-27T21:16:12.845Z,0.50
2017-11-27T21:42:54.101Z,0.60
2017-11-27T21:45:23.523Z,0.60
2017-11-27T21:47:55.432Z,0.70
2017-11-27T21:50:22.626Z,0.53
2017-11-27T21:52:50.478Z,0.50
2017-11-27T21:55:18.153Z,0.53
2017-11-27T22:04:14.980Z,0.40
2017-11-27T22:06:41.639Z,0.57
2017-11-27T22:09:08.499Z,0.40
2017-11-27T22:11:35.500Z,0.83
2017-11-27T22:14:02.724Z,0.60
2017-11-27T22:16:30.577Z,0.60
2017-11-27T22:18:57.705Z,0.47
2017-11-27T22:21:45.467Z,0.50
2017-11-27T22:24:12.129Z,0.93
2017-11-27T22:26:38.814Z,0.50
2017-11-27T22:29:05.545Z,0.50
2017-11-27T22:31:32.340Z,0.50
2017-11-27T22:33:59.121Z,0.50
2017-11-27T22:36:26.484Z,0.40
2017-11-27T22:38:53.189Z,0.70
2017-11-27T22:41:20.182Z,0.60
2017-11-27T22:43:46.924Z,0.77
2017-11-27T22:46:13.759Z,0.70
2017-11-27T22:48:40.495Z,0.83
2017-11-27T22:51:07.255Z,0.50
2017-11-27T22:53:34.167Z,1.13
2017-11-27T22:56:01.677Z,1.27
2017-11-27T23:01:29.581Z,0.60
2017-11-27T23:03:56.257Z,0.70
2017-11-27T23:06:23.334Z,0.60
2017-11-27T23:08:51.075Z,0.50
2017-11-27T23:11:18.858Z,0.60
2017-11-27T23:13:47.064Z,0.47
2017-11-27T23:16:15.807Z,0.53
2017-11-27T23:18:44.854Z,0.60
2017-11-27T23:21:16.384Z,0.70
2017-11-27T23:23:45.992Z,0.43
2017-11-27T23:26:16.641Z,0.50
2017-11-27T23:44:03.329Z,2.10
2017-11-27T23:46:30.622Z,0.40
2017-11-27T23:48:57.127Z,0.50
2017-11-27T23:51:23.547Z,0.50
2017-11-27T23:53:50.731Z,0.40
2017-11-27T23:56:17.113Z,0.50
2017-11-27T23:58:43.644Z,0.70
